Terminal Aerodrome Forecast
Issued by NWS Albany, NY

Home | Current Version | Previous Version | Text Only | Print | Product List | Glossary On
Versions: 1 2 3 4 5 6 7 8 9 10 11 12 13 14 15 16
000
FTUS41 KALY 050536
TAFPOU
TAF
KPOU 050536Z 0506/0606 02003KT P6SM SCT020 BKN045
      TEMPO 0506/0510 BKN020 BKN040
     FM051200 08003KT P6SM SCT020 SCT040
     FM051500 06004KT P6SM SKC
     FM060000 00000KT P6SM SKC=

USA.gov is the U.S. government's official web portal to all federal, state and local government web resources and services.